X  Close Metar Aviation Weather Data     EGHH Bournemouth Airport
Temperature
19°C Temperature
10°C Dewpoint
56% Humidity



Wind
12 MPH
19 KM/H
5 M/S
10 KTS



310°
NW
Current Conditions

Mostly Cloudy Mostly Cloudy
Pressure 1021.92 (hPa) - 30.18 (inHg)
Visibility 6.2 (mile) - 10 (km)
Airport
Airport-code EGHH

Location: Bournemouth Airport
Distance: 14 (mi)

Metar:
EGHH 041420Z 31010KT 240V310 9999 BKN034 19/10 Q1022

Time: 04-07-2022 15:20 BST